createdAt,value
2019-03-04T00:03:27.733Z,7.45
2019-03-04T00:08:34.073Z,4.27
2019-03-04T00:13:40.424Z,3.80
2019-03-04T00:18:46.711Z,7.57
2019-03-04T00:23:52.915Z,6.73
2019-03-04T00:28:59.123Z,5.83
2019-03-04T00:34:05.462Z,5.83
2019-03-04T00:39:12.717Z,6.80
2019-03-04T00:44:18.918Z,4.33
2019-03-04T00:49:25.134Z,5.65
2019-03-04T00:54:31.324Z,5.53
2019-03-04T00:59:37.519Z,5.07
2019-03-04T01:04:43.689Z,5.47
2019-03-04T01:09:50.142Z,4.30
2019-03-04T01:14:56.320Z,3.47
2019-03-04T01:20:02.533Z,4.85
2019-03-04T01:25:11.710Z,4.58
2019-03-04T01:30:19.907Z,5.22
2019-03-04T01:35:26.183Z,3.12
2019-03-04T01:40:32.542Z,3.20
2019-03-04T01:45:38.831Z,4.33
2019-03-04T01:50:45.105Z,3.47
2019-03-04T01:55:51.779Z,2.92
2019-03-04T02:00:58.103Z,3.57
2019-03-04T02:06:04.493Z,3.40
2019-03-04T02:11:10.720Z,3.20
2019-03-04T02:16:16.935Z,2.67
2019-03-04T02:21:23.316Z,3.40
2019-03-04T02:26:31.319Z,2.80
2019-03-04T02:31:37.677Z,3.33
2019-03-04T02:36:43.946Z,2.00
2019-03-04T02:41:50.411Z,3.02
2019-03-04T02:46:56.644Z,2.00
2019-03-04T02:52:02.887Z,1.47
2019-03-04T02:57:09.142Z,3.20
2019-03-04T03:02:15.488Z,2.27
2019-03-04T03:07:21.796Z,1.87
2019-03-04T03:12:27.982Z,4.53
2019-03-04T03:17:34.255Z,3.20
2019-03-04T03:22:40.450Z,2.20
2019-03-04T03:27:46.762Z,2.33
2019-03-04T03:32:53.021Z,2.90
2019-03-04T03:37:59.317Z,2.83
2019-03-04T03:43:06.025Z,2.27
2019-03-04T03:48:12.360Z,6.20
2019-03-04T03:53:18.622Z,3.87
2019-03-04T03:58:25.542Z,3.73
2019-03-04T04:03:31.926Z,2.57
2019-03-04T04:08:38.190Z,2.70
2019-03-04T04:13:44.519Z,2.73
2019-03-04T04:18:50.744Z,2.47
2019-03-04T04:23:56.975Z,2.97
2019-03-04T04:29:11.248Z,2.13
2019-03-04T04:34:17.485Z,2.20
2019-03-04T04:39:24.739Z,2.77
2019-03-04T04:44:31.005Z,3.60
2019-03-04T04:49:37.231Z,2.20
2019-03-04T04:54:43.524Z,1.77
2019-03-04T04:59:49.771Z,1.67
2019-03-04T05:04:56.009Z,2.80
2019-03-04T05:10:02.294Z,1.27
2019-03-04T05:15:10.828Z,1.83
2019-03-04T05:20:19.215Z,2.73
2019-03-04T05:25:25.546Z,1.72
2019-03-04T05:30:31.835Z,2.87
2019-03-04T05:35:38.104Z,0.90
2019-03-04T05:40:45.383Z,2.70
2019-03-04T05:45:51.611Z,0.37
2019-03-04T05:50:57.912Z,1.17
2019-03-04T05:56:05.209Z,1.13
2019-03-04T06:01:25.622Z,1.62
2019-03-04T06:06:49.761Z,0.63
2019-03-04T06:11:57.054Z,2.30
2019-03-04T06:17:03.316Z,4.33
2019-03-04T06:22:09.600Z,2.37
2019-03-04T06:27:15.794Z,2.20
2019-03-04T06:32:22.193Z,1.30
2019-03-04T06:37:28.417Z,1.55
2019-03-04T06:42:34.740Z,3.33
2019-03-04T06:47:41.083Z,1.83
2019-03-04T06:52:47.303Z,1.67
2019-03-04T06:57:54.159Z,4.25
2019-03-04T07:03:01.416Z,3.27
2019-03-04T07:08:08.920Z,2.77
2019-03-04T07:13:15.162Z,3.43
2019-03-04T07:18:21.475Z,4.50
2019-03-04T07:23:27.730Z,1.60
2019-03-04T07:28:35.017Z,2.37
2019-03-04T07:33:41.212Z,4.63
2019-03-04T07:38:58.263Z,3.90
2019-03-04T07:44:05.213Z,3.52
2019-03-04T07:49:11.484Z,3.47
2019-03-04T07:54:17.732Z,2.93
2019-03-04T07:59:23.971Z,3.20
2019-03-04T08:04:30.322Z,4.23
2019-03-04T08:10:11.464Z,2.58
2019-03-04T08:15:17.680Z,4.17
2019-03-04T08:20:23.963Z,3.73
2019-03-04T08:25:30.309Z,5.60
2019-03-04T08:30:36.618Z,5.97
2019-03-04T08:35:42.873Z,6.87
2019-03-04T08:40:49.156Z,5.70
2019-03-04T08:45:55.392Z,7.17
2019-03-04T08:51:02.435Z,4.62
2019-03-04T08:56:08.741Z,5.50
2019-03-04T09:01:15.035Z,5.43
2019-03-04T09:06:21.262Z,4.63
2019-03-04T09:11:27.526Z,5.03
2019-03-04T09:16:33.854Z,5.37
2019-03-04T09:21:40.045Z,4.93
2019-03-04T09:26:46.266Z,6.93
2019-03-04T09:31:52.479Z,8.08
2019-03-04T09:36:58.666Z,12.07
2019-03-04T09:42:17.244Z,10.33
2019-03-04T09:47:23.526Z,14.57
2019-03-04T09:52:29.804Z,4.57
2019-03-04T09:57:36.019Z,11.27
2019-03-04T10:02:45.537Z,7.75
2019-03-04T10:08:14.440Z,7.57
2019-03-04T10:13:36.791Z,11.30
2019-03-04T10:19:24.720Z,6.33
2019-03-04T10:24:41.209Z,4.43
2019-03-04T10:30:25.594Z,6.77
2019-03-04T10:35:44.097Z,3.03
2019-03-04T10:41:26.665Z,3.85
2019-03-04T10:46:46.493Z,2.97
2019-03-04T10:51:52.791Z,2.10
2019-03-04T10:56:59.041Z,1.77
2019-03-04T11:02:06.251Z,1.83
2019-03-04T11:07:12.491Z,1.10
2019-03-04T11:12:20.497Z,1.60
2019-03-04T11:17:27.019Z,1.60
2019-03-04T11:22:33.320Z,1.50
2019-03-04T11:27:39.589Z,2.30
2019-03-04T11:32:45.888Z,1.30
2019-03-04T11:37:52.208Z,3.50
2019-03-04T11:42:59.806Z,2.67
2019-03-04T11:48:06.248Z,3.07
2019-03-04T11:53:12.471Z,3.63
2019-03-04T11:58:18.803Z,3.63
2019-03-04T12:03:25.151Z,4.45
2019-03-04T12:08:31.440Z,4.85
2019-03-04T12:13:37.684Z,4.90
2019-03-04T12:18:43.983Z,3.03
2019-03-04T12:23:51.291Z,3.37
2019-03-04T12:28:57.536Z,3.12
2019-03-04T12:34:03.919Z,3.60
2019-03-04T12:39:11.663Z,3.83
2019-03-04T12:44:18.054Z,5.40
2019-03-04T12:49:24.368Z,6.87
2019-03-04T12:54:30.588Z,7.40
2019-03-04T12:59:36.895Z,7.37
2019-03-04T13:04:49.317Z,6.53
2019-03-04T13:09:55.679Z,6.78
2019-03-04T13:15:02.686Z,6.90
2019-03-04T13:20:10.351Z,7.67
2019-03-04T13:25:16.569Z,7.57
2019-03-04T13:30:23.354Z,5.53
2019-03-04T13:35:29.845Z,9.37
2019-03-04T13:40:36.186Z,6.73
2019-03-04T13:45:42.473Z,5.85
2019-03-04T13:50:48.884Z,10.07
2019-03-04T13:55:55.100Z,8.67
2019-03-04T14:01:01.395Z,11.33
2019-03-04T14:06:07.684Z,5.57
2019-03-04T14:11:14.037Z,6.93
2019-03-04T14:16:20.381Z,5.20
2019-03-04T14:21:27.591Z,5.57
2019-03-04T14:26:33.808Z,6.43
2019-03-04T14:31:40.036Z,5.90
2019-03-04T14:36:46.268Z,6.57
2019-03-04T14:41:52.673Z,3.40
2019-03-04T14:47:00.353Z,7.90
2019-03-04T14:52:06.739Z,6.33
2019-03-04T14:57:13.120Z,5.23
2019-03-04T15:02:19.447Z,3.50
2019-03-04T15:07:25.655Z,5.40
2019-03-04T15:12:31.960Z,7.70
2019-03-04T15:17:38.189Z,6.70
2019-03-04T15:22:44.551Z,3.13
2019-03-04T15:27:50.800Z,4.03
2019-03-04T15:32:57.016Z,6.10
2019-03-04T15:38:03.218Z,5.17
2019-03-04T15:43:24.365Z,6.47
2019-03-04T15:48:30.861Z,5.10
2019-03-04T15:53:37.166Z,3.97
2019-03-04T15:58:43.371Z,3.03
2019-03-04T16:03:49.665Z,7.10
2019-03-04T16:08:55.894Z,3.93
2019-03-04T16:14:02.242Z,4.33
2019-03-04T16:19:10.216Z,4.20
2019-03-04T16:24:17.572Z,6.13
2019-03-04T16:29:23.854Z,3.97
2019-03-04T16:34:30.068Z,3.10
2019-03-04T16:39:36.506Z,4.80
2019-03-04T16:44:42.812Z,9.30
2019-03-04T16:49:49.067Z,4.20
2019-03-04T16:54:57.245Z,3.05
2019-03-04T17:00:03.218Z,8.10
2019-03-04T17:05:12.459Z,6.17
2019-03-04T17:10:19.131Z,4.17
2019-03-04T17:15:25.540Z,6.37
2019-03-04T17:20:31.974Z,3.23
2019-03-04T17:25:38.752Z,1.93
2019-03-04T17:30:45.217Z,7.73
2019-03-04T17:35:52.624Z,5.93
2019-03-04T17:40:58.972Z,2.70
2019-03-04T17:46:05.355Z,4.92
2019-03-04T17:51:11.775Z,3.07
2019-03-04T17:56:19.200Z,4.57
2019-03-04T18:01:25.557Z,5.75
2019-03-04T18:06:31.951Z,2.50
2019-03-04T18:11:38.254Z,8.00
2019-03-04T18:16:44.519Z,3.70
2019-03-04T18:21:51.049Z,6.33
2019-03-04T18:27:07.098Z,4.12
2019-03-04T18:32:48.916Z,3.40
2019-03-04T18:38:42.374Z,3.10
2019-03-04T18:44:32.491Z,4.50
2019-03-04T18:49:38.720Z,5.55
2019-03-04T18:54:45.154Z,5.53
2019-03-04T18:59:52.379Z,7.25
2019-03-04T19:05:00.322Z,5.00
2019-03-04T19:10:07.514Z,6.50
2019-03-04T19:15:13.891Z,6.57
2019-03-04T19:20:20.408Z,3.80
2019-03-04T19:25:26.711Z,4.60
2019-03-04T19:30:32.926Z,6.07
2019-03-04T19:35:39.133Z,4.43
2019-03-04T19:40:45.431Z,5.83
2019-03-04T19:45:52.174Z,6.43
2019-03-04T19:50:58.531Z,7.05
2019-03-04T19:56:05.588Z,9.38
2019-03-04T20:01:17.806Z,6.83
2019-03-04T20:06:24.294Z,8.80
2019-03-04T20:11:30.774Z,6.45
2019-03-04T20:16:37.160Z,8.57
2019-03-04T20:21:43.630Z,6.47
2019-03-04T20:26:49.983Z,6.17
2019-03-04T20:31:56.380Z,6.55
2019-03-04T20:37:02.696Z,1.80
2019-03-04T20:42:09.070Z,1.83
2019-03-04T20:47:15.974Z,2.30
2019-03-04T20:52:22.282Z,1.10
2019-03-04T20:57:28.514Z,1.15
2019-03-04T21:02:34.793Z,1.07
2019-03-04T21:07:41.002Z,2.40
2019-03-04T21:12:48.778Z,3.75
2019-03-04T21:17:55.387Z,3.03
2019-03-04T21:23:01.773Z,2.03
2019-03-04T21:28:12.251Z,4.97
2019-03-04T21:33:33.809Z,5.15
2019-03-04T21:38:40.077Z,3.77
2019-03-04T21:43:56.818Z,5.23
2019-03-04T21:49:06.597Z,7.47
2019-03-04T21:54:13.222Z,3.97
2019-03-04T21:59:19.574Z,8.13
2019-03-04T22:04:27.678Z,4.20
2019-03-04T22:09:34.069Z,7.27
2019-03-04T22:14:40.391Z,7.75
2019-03-04T22:19:46.689Z,5.20
2019-03-04T22:24:53.049Z,6.53
2019-03-04T22:29:59.336Z,8.83
2019-03-04T22:35:06.524Z,6.83
2019-03-04T22:40:15.081Z,9.90
2019-03-04T22:45:21.611Z,8.18
2019-03-04T22:50:27.943Z,10.27
2019-03-04T22:55:36.208Z,9.13
2019-03-04T23:01:33.723Z,11.70
2019-03-04T23:06:41.168Z,15.73
2019-03-04T23:11:52.263Z,11.33
2019-03-04T23:17:00.122Z,13.03
2019-03-04T23:22:06.623Z,7.63
2019-03-04T23:27:12.947Z,12.47
2019-03-04T23:32:19.214Z,11.30
2019-03-04T23:37:25.476Z,14.03
2019-03-04T23:42:32.174Z,9.53
2019-03-04T23:47:38.400Z,13.77
2019-03-04T23:52:44.767Z,12.00
2019-03-04T23:57:51.035Z,11.30
